createdAt,value
2022-08-19T08:53:48.376Z,0.304
2022-08-19T08:59:14.688Z,0.311
2022-08-19T09:04:38.556Z,0.285
2022-08-19T09:05:19.076Z,0.3
2022-08-19T09:11:10.067Z,0.354
2022-08-19T09:17:12.464Z,0.418
2022-08-19T09:22:33.256Z,0.501
2022-08-19T09:28:01.226Z,0.535
2022-08-19T12:27:57.197Z,0.436
2022-08-19T12:33:11.473Z,0.393
2022-08-19T12:38:23.975Z,0.416
2022-08-19T12:43:36.735Z,0.42
2022-08-19T13:05:00.267Z,0.332
2022-08-19T13:10:18.837Z,0.367
2022-08-19T13:15:31.308Z,0.291
2022-08-19T13:20:52.403Z,0.227
2022-08-19T13:26:03.595Z,0.266
2022-08-19T13:31:15.996Z,0.26
2022-08-19T13:36:28.205Z,0.298
2022-08-19T13:41:40.643Z,0.252
2022-08-19T13:46:53.883Z,0.247
2022-08-19T13:52:06.489Z,0.144
2022-08-19T13:57:18.718Z,0.111
2022-08-19T14:02:30.697Z,0.136
2022-08-19T14:07:42.938Z,0.093
2022-08-19T14:12:55.098Z,0.081
2022-08-19T14:18:07.051Z,0.196
2022-08-19T14:23:19.207Z,0.189
2022-08-19T14:34:05.627Z,0.236
2022-08-19T14:39:18.137Z,0.233
2022-08-19T14:44:30.565Z,0.206
2022-08-19T14:49:48.393Z,0.116
2022-08-19T14:55:07.384Z,0.194
2022-08-19T15:00:29.024Z,0.174
2022-08-19T15:05:45.545Z,0.243
2022-08-19T15:10:58.175Z,0.295
2022-08-19T15:16:17.959Z,0.245
2022-08-19T15:21:35.219Z,0.225
2022-08-19T15:26:47.937Z,0.202
2022-08-19T15:32:00.778Z,0.205
2022-08-19T15:37:13.749Z,0.131
2022-08-19T15:42:29.680Z,0.181
2022-08-19T15:47:45.938Z,0.035
2022-08-19T15:52:58.034Z,0.1
2022-08-19T15:58:10.309Z,0.194
2022-08-19T16:03:40.175Z,0.218
2022-08-19T16:08:53.038Z,0.141
2022-08-19T16:14:05.587Z,0.131
2022-08-19T16:19:17.950Z,0.097
2022-08-19T16:24:30.157Z,0.078
2022-08-19T16:29:42.255Z,0.084
2022-08-19T16:34:54.516Z,0.147
2022-08-19T16:40:06.663Z,0.042
2022-08-19T16:45:19.228Z,0.132
2022-08-19T16:50:48.568Z,0.136
2022-08-19T16:55:58.689Z,0.146
2022-08-19T17:01:10.872Z,0.138
2022-08-19T17:06:23.307Z,0.025
2022-08-19T17:11:35.340Z,0.038
2022-08-19T17:16:47.488Z,0.086
2022-08-19T17:21:59.525Z,0.094
2022-08-19T17:27:11.679Z,0.118
2022-08-19T17:32:24.782Z,0.095
2022-08-19T17:37:36.892Z,0.058
2022-08-19T17:42:49.156Z,0.099
2022-08-19T17:48:01.400Z,0.097
2022-08-19T17:53:13.707Z,0.098
2022-08-19T17:58:26.530Z,0.103
2022-08-19T18:03:38.928Z,0.099
2022-08-19T18:08:51.019Z,0.11
2022-08-19T18:14:03.195Z,0.103
2022-08-19T18:19:15.463Z,0.071
2022-08-19T18:24:27.553Z,0.068
2022-08-19T18:29:39.677Z,0.105
2022-08-19T18:34:52.050Z,0.038
2022-08-19T18:40:04.825Z,0.082
2022-08-19T18:45:17.395Z,0.074
2022-08-19T18:55:50.506Z,0.087
2022-08-19T19:01:02.743Z,0.069
2022-08-19T19:06:15.040Z,0.069
2022-08-19T19:11:27.257Z,0.068
2022-08-19T19:16:39.511Z,0.077
2022-08-19T19:21:51.756Z,0.073
2022-08-19T19:27:03.877Z,0.081
2022-08-19T19:32:15.936Z,0.042
2022-08-19T19:37:28.096Z,0.078
2022-08-19T19:42:40.351Z,0.056
2022-08-19T19:47:52.936Z,0.071
2022-08-19T19:53:05.637Z,0.059
2022-08-19T19:58:17.789Z,0.047
2022-08-19T20:03:38.657Z,0.061
2022-08-19T20:08:50.816Z,0.05
2022-08-19T20:14:03.025Z,0.037
2022-08-19T20:19:15.243Z,0.05
2022-08-19T20:24:27.450Z,0.063
2022-08-19T20:29:40.414Z,0.056
2022-08-19T20:34:59.409Z,0.04
2022-08-19T20:40:11.581Z,0.043
2022-08-19T20:45:29.453Z,0.038
2022-08-19T20:50:43.882Z,0.042
2022-08-19T20:55:59.798Z,0.054
2022-08-19T21:01:12.562Z,0.044
2022-08-19T21:06:26.145Z,0.036
2022-08-19T21:11:40.571Z,0.037
2022-08-19T21:16:52.720Z,0.037
2022-08-19T21:22:04.786Z,0.002
2022-08-19T21:27:16.899Z,0.048
2022-08-19T21:32:29.230Z,0.051
2022-08-19T21:37:41.216Z,0.044
2022-08-19T21:42:53.109Z,-0.012
2022-08-19T21:48:05.799Z,0.04
2022-08-19T21:53:17.873Z,0.032
2022-08-19T21:58:35.533Z,0.034
2022-08-19T22:03:47.633Z,0.032
2022-08-19T22:08:59.715Z,0.036
2022-08-19T22:14:11.727Z,0.04
2022-08-19T22:19:23.732Z,0.023
2022-08-19T22:24:35.736Z,0.026
2022-08-19T22:29:47.770Z,0.02
2022-08-19T22:35:08.392Z,0.017
2022-08-19T22:40:20.477Z,0.028
2022-08-19T22:45:32.425Z,0.009
2022-08-19T22:50:44.283Z,0.007
2022-08-19T22:55:56.562Z,0.009
2022-08-19T23:01:09.052Z,0.003
2022-08-19T23:06:40.327Z,0.012
2022-08-19T23:11:57.967Z,0.013
2022-08-19T23:17:10.120Z,0.017
2022-08-19T23:22:24.855Z,-0.03
2022-08-19T23:27:36.425Z,0.013
2022-08-19T23:32:48.616Z,0.012
2022-08-19T23:38:00.804Z,0.015
2022-08-19T23:43:15.811Z,0.026
2022-08-19T23:48:34.769Z,0.021
2022-08-19T23:53:47.038Z,0.017
2022-08-19T23:58:59.343Z,0.026
